createdAt,value
2023-04-06T00:01:45.635Z,100615.28
2023-04-06T00:04:48.628Z,100612.75
2023-04-06T00:07:51.478Z,100612.69
2023-04-06T00:10:54.593Z,100609.78
2023-04-06T00:13:57.209Z,100605.13
2023-04-06T00:17:00.142Z,100613.47
2023-04-06T00:20:02.765Z,100602.81
2023-04-06T00:23:05.772Z,100597.09
2023-04-06T00:26:09.637Z,100594.38
2023-04-06T00:29:12.973Z,100595.88
2023-04-06T00:32:15.725Z,100596.63
2023-04-06T00:35:18.542Z,100588.28
2023-04-06T00:38:21.881Z,100585.63
2023-04-06T00:41:24.524Z,100588.81
2023-04-06T00:44:27.482Z,100586.34
2023-04-06T00:47:29.991Z,100577.50
2023-04-06T00:50:32.912Z,100577.34
2023-04-06T00:53:35.645Z,100578.00
2023-04-06T00:56:38.702Z,100584.28
2023-04-06T00:59:41.817Z,100581.69
2023-04-06T01:02:47.498Z,100584.34
2023-04-06T01:05:59.320Z,100584.56
2023-04-06T01:09:09.718Z,100584.69
2023-04-06T01:12:12.545Z,100597.25
2023-04-06T01:15:16.270Z,100581.38
2023-04-06T01:18:28.208Z,100589.31
2023-04-06T01:21:41.183Z,100583.88
2023-04-06T01:24:57.810Z,100583.09
2023-04-06T01:28:07.216Z,100586.97
2023-04-06T01:31:27.934Z,100579.03
2023-04-06T01:34:30.737Z,100580.09
2023-04-06T01:37:38.085Z,100577.06
2023-04-06T01:40:44.138Z,100587.38
2023-04-06T01:43:48.378Z,100578.91
2023-04-06T01:46:51.158Z,100569.72
2023-04-06T01:49:55.615Z,100578.72
2023-04-06T01:52:58.762Z,100570.50
2023-04-06T01:56:03.822Z,100567.63
2023-04-06T01:59:14.529Z,100578.72
2023-04-06T02:02:19.300Z,100573.75
2023-04-06T02:05:32.301Z,100565.13
2023-04-06T02:08:35.995Z,100559.91
2023-04-06T02:11:39.311Z,100565.75
2023-04-06T02:14:42.294Z,100558.91
2023-04-06T02:17:45.945Z,100552.56
2023-04-06T02:20:48.688Z,100548.00
2023-04-06T02:23:51.363Z,100552.63
2023-04-06T02:26:54.122Z,100559.06
2023-04-06T02:29:56.691Z,100554.31
2023-04-06T02:33:01.465Z,100550.44
2023-04-06T02:36:06.292Z,100538.69
2023-04-06T02:39:09.314Z,100551.56
2023-04-06T02:42:12.761Z,100551.44
2023-04-06T02:45:15.702Z,100549.16
2023-04-06T02:48:21.217Z,100544.91
2023-04-06T02:51:23.861Z,100554.81
2023-04-06T02:54:30.902Z,100543.03
2023-04-06T02:57:34.309Z,100547.19
2023-04-06T03:00:38.379Z,100542.03
2023-04-06T03:03:41.509Z,100544.22
2023-04-06T03:06:50.601Z,100532.41
2023-04-06T03:10:02.864Z,100539.47
2023-04-06T03:13:07.860Z,100541.84
2023-04-06T03:16:28.876Z,100543.59
2023-04-06T03:19:32.138Z,100545.38
2023-04-06T03:22:37.938Z,100547.22
2023-04-06T03:25:42.282Z,100531.78
2023-04-06T03:28:48.390Z,100541.06
2023-04-06T03:31:52.388Z,100551.06
2023-04-06T03:35:09.555Z,100546.63
2023-04-06T03:38:12.122Z,100553.97
2023-04-06T03:41:15.210Z,100545.56
2023-04-06T03:44:24.138Z,100552.84
2023-04-06T03:47:27.181Z,100537.81
2023-04-06T03:50:33.746Z,100547.94
2023-04-06T03:53:38.444Z,100547.16
2023-04-06T03:56:41.589Z,100541.38
2023-04-06T03:59:44.222Z,100543.16
2023-04-06T04:02:46.901Z,100548.59
2023-04-06T04:05:52.372Z,100548.38
2023-04-06T04:08:55.468Z,100541.66
2023-04-06T04:11:58.923Z,100538.09
2023-04-06T04:15:01.463Z,100535.75
2023-04-06T04:18:04.369Z,100537.81
2023-04-06T04:21:07.040Z,100536.81
2023-04-06T04:24:10.277Z,100535.75
2023-04-06T04:27:13.555Z,100537.63
2023-04-06T04:30:17.684Z,100528.19
2023-04-06T04:33:20.128Z,100526.13
2023-04-06T04:36:24.301Z,100530.66
2023-04-06T04:39:26.809Z,100512.47
2023-04-06T04:42:36.770Z,100514.78
2023-04-06T04:45:42.777Z,100517.84
2023-04-06T04:49:06.627Z,100517.78
2023-04-06T04:52:09.756Z,100522.03
2023-04-06T04:55:24.263Z,100527.69
2023-04-06T04:58:31.438Z,100520.81
2023-04-06T05:01:47.667Z,100513.31
2023-04-06T05:04:58.001Z,100511.91
2023-04-06T05:08:03.339Z,100506.63
2023-04-06T05:11:19.321Z,100507.09
2023-04-06T05:14:29.982Z,100495.63
2023-04-06T05:17:33.906Z,100502.13
2023-04-06T05:20:36.835Z,100498.94
2023-04-06T05:23:39.704Z,100483.41
2023-04-06T05:26:42.824Z,100487.91
2023-04-06T05:29:56.675Z,100481.66
2023-04-06T05:33:02.775Z,100479.38
2023-04-06T05:36:15.940Z,100475.47
2023-04-06T05:39:21.401Z,100477.00
2023-04-06T05:42:26.709Z,100466.31
2023-04-06T05:45:32.797Z,100459.75
2023-04-06T05:48:36.034Z,100466.06
2023-04-06T05:51:39.710Z,100463.41
2023-04-06T05:54:42.571Z,100470.69
2023-04-06T05:57:45.262Z,100468.72
2023-04-06T06:00:50.836Z,100451.19
2023-04-06T06:03:57.585Z,100454.81
2023-04-06T06:07:03.970Z,100464.16
2023-04-06T06:10:15.084Z,100449.03
2023-04-06T06:13:17.814Z,100446.38
2023-04-06T06:16:20.754Z,100449.94
2023-04-06T06:19:24.859Z,100446.47
2023-04-06T06:22:30.874Z,100451.75
2023-04-06T06:25:34.011Z,100440.41
2023-04-06T06:28:37.598Z,100441.66
2023-04-06T06:31:40.295Z,100435.66
2023-04-06T06:34:42.986Z,100435.06
2023-04-06T06:37:46.516Z,100428.13
2023-04-06T06:40:52.336Z,100430.00
2023-04-06T06:43:55.994Z,100429.28
2023-04-06T06:46:58.457Z,100425.41
2023-04-06T06:50:01.394Z,100413.44
2023-04-06T06:53:03.916Z,100411.59
2023-04-06T06:56:07.061Z,100408.44
2023-04-06T06:59:10.798Z,100412.28
2023-04-06T07:02:14.355Z,100405.97
2023-04-06T07:05:27.650Z,100411.59
2023-04-06T07:08:33.198Z,100412.47
2023-04-06T07:11:35.722Z,100408.38
2023-04-06T07:14:39.392Z,100412.56
2023-04-06T07:17:46.745Z,100407.13
2023-04-06T07:20:49.632Z,100408.56
2023-04-06T07:23:53.317Z,100406.47
2023-04-06T07:26:58.210Z,100408.44
2023-04-06T07:30:02.019Z,100404.25
2023-04-06T07:33:04.851Z,100404.03
2023-04-06T07:36:08.384Z,100390.69
2023-04-06T07:39:11.646Z,100399.00
2023-04-06T07:42:14.208Z,100401.00
2023-04-06T07:45:17.655Z,100396.47
2023-04-06T07:48:20.200Z,100398.44
2023-04-06T07:51:22.759Z,100394.53
2023-04-06T07:54:25.789Z,100391.22
2023-04-06T07:57:28.300Z,100388.03
2023-04-06T08:00:31.399Z,100384.94
2023-04-06T08:03:37.294Z,100390.63
2023-04-06T08:06:39.981Z,100388.47
2023-04-06T08:09:42.613Z,100380.34
2023-04-06T08:12:45.165Z,100389.78
2023-04-06T08:15:47.788Z,100398.41
2023-04-06T08:18:50.263Z,100395.06
2023-04-06T08:21:52.936Z,100385.75
2023-04-06T08:24:55.508Z,100374.78
2023-04-06T08:27:58.224Z,100376.19
2023-04-06T08:31:01.016Z,100383.78
2023-04-06T08:34:04.842Z,100384.84
2023-04-06T08:37:07.564Z,100371.28
2023-04-06T08:40:10.615Z,100375.63
2023-04-06T08:43:14.839Z,100362.84
2023-04-06T08:46:17.340Z,100371.97
2023-04-06T08:49:20.449Z,100364.72
2023-04-06T08:52:23.091Z,100365.22
2023-04-06T08:55:25.630Z,100369.50
2023-04-06T08:58:37.648Z,100369.41
2023-04-06T09:01:44.300Z,100363.97
2023-04-06T09:04:51.000Z,100358.00
2023-04-06T09:07:53.917Z,100360.47
2023-04-06T09:10:56.450Z,100353.41
2023-04-06T09:13:59.288Z,100352.88
2023-04-06T09:17:01.828Z,100356.63
2023-04-06T09:20:04.636Z,100358.69
2023-04-06T09:23:07.185Z,100351.28
2023-04-06T09:26:13.370Z,100344.63
2023-04-06T09:29:28.025Z,100338.66
2023-04-06T09:32:30.885Z,100340.84
2023-04-06T09:35:34.196Z,100340.22
2023-04-06T09:38:56.248Z,100339.16
2023-04-06T09:41:59.060Z,100336.59
2023-04-06T09:45:04.373Z,100332.84
2023-04-06T09:48:07.102Z,100325.19
2023-04-06T09:51:09.601Z,100329.13
2023-04-06T09:54:12.189Z,100328.50
2023-04-06T09:57:27.461Z,100329.28
2023-04-06T10:00:29.901Z,100318.25
2023-04-06T10:03:38.808Z,100321.75
2023-04-06T10:06:44.505Z,100315.47
2023-04-06T10:09:46.953Z,100311.59
2023-04-06T10:12:50.469Z,100319.63
2023-04-06T10:15:53.329Z,100304.56
2023-04-06T10:19:03.493Z,100315.16
2023-04-06T10:22:05.988Z,100301.75
2023-04-06T10:25:09.534Z,100297.66
2023-04-06T10:28:12.756Z,100298.94
2023-04-06T10:31:15.709Z,100287.34
2023-04-06T10:34:18.293Z,100291.34
2023-04-06T10:37:22.485Z,100284.44
2023-04-06T10:40:28.329Z,100279.47
2023-04-06T10:43:34.840Z,100282.81
2023-04-06T10:46:37.435Z,100275.28
2023-04-06T10:49:40.007Z,100269.63
2023-04-06T10:52:42.683Z,100273.00
2023-04-06T10:55:45.383Z,100262.91
2023-04-06T10:58:53.403Z,100255.66
2023-04-06T11:01:56.997Z,100263.63
2023-04-06T11:04:59.730Z,100257.81
2023-04-06T11:08:02.209Z,100260.53
2023-04-06T11:11:11.798Z,100264.31
2023-04-06T11:14:14.422Z,100256.34
2023-04-06T11:17:17.384Z,100261.19
2023-04-06T11:20:20.697Z,100257.56
2023-04-06T11:23:25.398Z,100254.91
2023-04-06T11:26:28.041Z,100262.16
2023-04-06T11:29:34.910Z,100254.84
2023-04-06T11:32:44.768Z,100254.59
2023-04-06T11:35:47.834Z,100256.00
2023-04-06T11:38:50.856Z,100248.00
2023-04-06T11:42:08.534Z,100248.41
2023-04-06T11:45:12.914Z,100249.91
2023-04-06T11:48:19.624Z,100246.41
2023-04-06T11:51:25.699Z,100239.81
2023-04-06T11:54:38.765Z,100244.56
2023-04-06T11:57:42.337Z,100232.47
2023-04-06T12:00:47.598Z,100242.97
2023-04-06T12:03:52.181Z,100232.94
2023-04-06T12:06:55.037Z,100232.53
2023-04-06T12:09:57.599Z,100232.31
2023-04-06T12:13:00.312Z,100230.28
2023-04-06T12:16:02.791Z,100221.81
2023-04-06T12:19:05.441Z,100225.19
2023-04-06T12:22:07.952Z,100224.88
2023-04-06T12:25:10.674Z,100225.84
2023-04-06T12:28:13.124Z,100215.94
2023-04-06T12:31:19.245Z,100226.72
2023-04-06T12:34:21.818Z,100219.53
2023-04-06T12:37:24.446Z,100213.97
2023-04-06T12:40:26.970Z,100217.06
2023-04-06T12:43:29.538Z,100214.50
2023-04-06T12:46:32.125Z,100216.44
2023-04-06T12:49:34.622Z,100210.72
2023-04-06T12:52:37.615Z,100213.03
2023-04-06T12:55:40.128Z,100211.81
2023-04-06T12:58:43.290Z,100214.19
2023-04-06T13:01:46.525Z,100204.06
2023-04-06T13:04:50.167Z,100201.25
2023-04-06T13:07:52.698Z,100209.91
2023-04-06T13:10:55.636Z,100206.78
2023-04-06T13:13:58.252Z,100207.13
2023-04-06T13:17:01.392Z,100200.31
2023-04-06T13:20:04.653Z,100199.47
2023-04-06T13:23:07.128Z,100195.72
2023-04-06T13:26:09.402Z,100192.94
2023-04-06T13:29:12.100Z,100189.28
2023-04-06T13:32:15.069Z,100186.44
2023-04-06T13:35:17.986Z,100177.16
2023-04-06T13:38:20.619Z,100185.78
2023-04-06T13:41:23.732Z,100180.22
2023-04-06T13:44:27.148Z,100188.47
2023-04-06T13:47:29.651Z,100186.66
2023-04-06T13:50:32.105Z,100178.50
2023-04-06T13:53:34.548Z,100181.47
2023-04-06T13:56:37.333Z,100183.00
2023-04-06T13:59:39.925Z,100180.03
2023-04-06T14:02:42.620Z,100184.38
2023-04-06T14:05:46.566Z,100187.16
2023-04-06T14:08:49.174Z,100188.50
2023-04-06T14:11:51.860Z,100185.34
2023-04-06T14:14:54.327Z,100192.13
2023-04-06T14:17:57.874Z,100185.34
2023-04-06T14:21:00.527Z,100190.56
2023-04-06T14:24:02.974Z,100190.59
2023-04-06T14:27:05.382Z,100194.03
2023-04-06T14:30:08.532Z,100193.50
2023-04-06T14:33:10.928Z,100176.53
2023-04-06T14:36:13.627Z,100179.06
2023-04-06T14:39:16.054Z,100198.13
2023-04-06T14:42:18.479Z,100194.94
2023-04-06T14:45:22.805Z,100195.78
2023-04-06T14:48:25.498Z,100208.72
2023-04-06T14:51:30.854Z,100199.22
2023-04-06T14:54:33.233Z,100207.59
2023-04-06T14:57:35.830Z,100193.50
2023-04-06T15:00:39.448Z,100199.31
2023-04-06T15:03:41.945Z,100197.97
2023-04-06T15:06:44.597Z,100200.50
2023-04-06T15:09:47.005Z,100204.69
2023-04-06T15:12:49.641Z,100196.34
2023-04-06T15:15:52.741Z,100202.13
2023-04-06T15:18:55.630Z,100197.53
2023-04-06T15:21:59.677Z,100196.97
2023-04-06T15:25:03.423Z,100207.16
2023-04-06T15:28:05.921Z,100214.19
2023-04-06T15:31:24.460Z,100212.91
2023-04-06T15:34:38.827Z,100221.13
2023-04-06T15:37:41.284Z,100222.66
2023-04-06T15:40:47.909Z,100228.28
2023-04-06T15:43:53.256Z,100232.28
2023-04-06T15:46:55.933Z,100230.09
2023-04-06T15:49:58.379Z,100240.94
2023-04-06T15:53:01.135Z,100237.09
2023-04-06T15:56:04.945Z,100227.03
2023-04-06T15:59:08.169Z,100234.56
2023-04-06T16:02:10.737Z,100236.00
2023-04-06T16:05:13.616Z,100243.63
2023-04-06T16:08:16.739Z,100227.75
2023-04-06T16:11:19.225Z,100233.97
2023-04-06T16:14:21.945Z,100238.22
2023-04-06T16:17:24.619Z,100241.97
2023-04-06T16:20:27.562Z,100244.31
2023-04-06T16:23:30.152Z,100238.59
2023-04-06T16:26:32.972Z,100243.34
2023-04-06T16:29:35.817Z,100246.34
2023-04-06T16:32:38.478Z,100237.88
2023-04-06T16:35:47.404Z,100246.56
2023-04-06T16:38:50.221Z,100239.19
2023-04-06T16:41:52.792Z,100245.41
2023-04-06T16:44:55.907Z,100244.59
2023-04-06T16:47:58.575Z,100242.00
2023-04-06T16:51:07.655Z,100244.53
2023-04-06T16:54:10.057Z,100247.13
2023-04-06T16:57:14.186Z,100252.50
2023-04-06T17:00:17.416Z,100249.53
2023-04-06T17:03:20.114Z,100262.28
2023-04-06T17:06:22.800Z,100260.69
2023-04-06T17:09:25.461Z,100262.84
2023-04-06T17:12:29.000Z,100263.28
2023-04-06T17:15:31.802Z,100268.38
2023-04-06T17:18:34.978Z,100264.72
2023-04-06T17:21:39.857Z,100269.94
2023-04-06T17:24:42.294Z,100267.06
2023-04-06T17:27:44.960Z,100268.13
2023-04-06T17:30:47.508Z,100271.53
2023-04-06T17:33:50.500Z,100279.25
2023-04-06T17:36:52.902Z,100288.91
2023-04-06T17:39:55.490Z,100285.56
2023-04-06T17:42:58.075Z,100291.72
2023-04-06T17:46:00.832Z,100299.44
2023-04-06T17:49:03.368Z,100295.59
2023-04-06T17:52:05.883Z,100300.28
2023-04-06T17:55:08.594Z,100304.69
2023-04-06T17:58:11.208Z,100301.13
2023-04-06T18:01:14.813Z,100299.28
2023-04-06T18:04:17.434Z,100309.59
2023-04-06T18:07:19.940Z,100301.13
2023-04-06T18:10:22.838Z,100314.47
2023-04-06T18:13:25.472Z,100310.91
2023-04-06T18:16:28.521Z,100308.53
2023-04-06T18:19:32.304Z,100312.25
2023-04-06T18:22:36.750Z,100305.59
2023-04-06T18:25:42.309Z,100318.31
2023-04-06T18:28:45.150Z,100322.78
2023-04-06T18:31:52.120Z,100319.66
2023-04-06T18:34:58.401Z,100319.66
2023-04-06T18:38:01.020Z,100319.75
2023-04-06T18:41:03.705Z,100326.94
2023-04-06T18:44:06.416Z,100324.31
2023-04-06T18:47:08.902Z,100327.44
2023-04-06T18:50:11.468Z,100325.88
2023-04-06T18:53:13.972Z,100323.72
2023-04-06T18:56:17.645Z,100326.03
2023-04-06T18:59:19.949Z,100319.16
2023-04-06T19:02:22.349Z,100321.28
2023-04-06T19:05:25.270Z,100312.78
2023-04-06T19:08:27.748Z,100321.22
2023-04-06T19:11:30.838Z,100319.88
2023-04-06T19:14:33.942Z,100310.66
2023-04-06T19:17:38.038Z,100314.09
2023-04-06T19:20:40.603Z,100323.63
2023-04-06T19:23:46.909Z,100315.72
2023-04-06T19:26:49.451Z,100309.06
2023-04-06T19:29:52.272Z,100311.94
2023-04-06T19:32:54.819Z,100313.66
2023-04-06T19:35:57.336Z,100308.16
2023-04-06T19:38:59.963Z,100313.28
2023-04-06T19:42:02.398Z,100323.16
2023-04-06T19:45:06.099Z,100307.78
2023-04-06T19:48:08.733Z,100311.63
2023-04-06T19:51:11.312Z,100308.59
2023-04-06T19:54:13.853Z,100298.16
2023-04-06T19:57:16.697Z,100310.91
2023-04-06T20:00:19.487Z,100307.97
2023-04-06T20:03:21.988Z,100300.84
2023-04-06T20:06:24.986Z,100307.72
2023-04-06T20:09:28.054Z,100309.28
2023-04-06T20:12:30.508Z,100313.78
2023-04-06T20:15:33.096Z,100313.38
2023-04-06T20:18:35.576Z,100312.47
2023-04-06T20:21:39.631Z,100310.56
2023-04-06T20:24:42.248Z,100299.09
2023-04-06T20:27:45.720Z,100310.56
2023-04-06T20:30:52.464Z,100312.34
2023-04-06T20:33:55.411Z,100308.94
2023-04-06T20:36:58.637Z,100306.66
2023-04-06T20:40:01.736Z,100304.13
2023-04-06T20:43:05.625Z,100293.81
2023-04-06T20:46:09.375Z,100281.53
2023-04-06T20:49:15.102Z,100292.66
2023-04-06T20:52:17.684Z,100287.53
2023-04-06T20:55:20.468Z,100287.91
2023-04-06T20:58:23.358Z,100290.94
2023-04-06T21:01:26.262Z,100278.06
2023-04-06T21:04:28.950Z,100284.94
2023-04-06T21:07:31.488Z,100288.44
2023-04-06T21:10:34.001Z,100282.81
2023-04-06T21:13:36.823Z,100288.28
2023-04-06T21:16:39.593Z,100283.84
2023-04-06T21:19:42.067Z,100288.78
2023-04-06T21:22:44.725Z,100283.91
2023-04-06T21:25:47.345Z,100282.97
2023-04-06T21:28:49.785Z,100277.13
2023-04-06T21:31:52.196Z,100280.81
2023-04-06T21:34:54.624Z,100282.44
2023-04-06T21:37:57.247Z,100282.22
2023-04-06T21:40:59.921Z,100274.72
2023-04-06T21:44:02.627Z,100270.00
2023-04-06T21:47:05.267Z,100271.34
2023-04-06T21:50:08.345Z,100263.38
2023-04-06T21:53:10.974Z,100266.34
2023-04-06T21:56:13.836Z,100252.53
2023-04-06T21:59:16.463Z,100250.84
2023-04-06T22:02:19.015Z,100254.16
2023-04-06T22:05:21.563Z,100250.78
2023-04-06T22:08:33.411Z,100237.16
2023-04-06T22:11:36.348Z,100240.69
2023-04-06T22:14:38.977Z,100224.66
2023-04-06T22:17:41.530Z,100236.56
2023-04-06T22:20:44.153Z,100236.34
2023-04-06T22:23:46.576Z,100228.06
2023-04-06T22:26:49.087Z,100233.09
2023-04-06T22:29:51.780Z,100235.53
2023-04-06T22:32:54.212Z,100228.59
2023-04-06T22:35:56.780Z,100226.31
2023-04-06T22:38:59.146Z,100223.16
2023-04-06T22:42:01.649Z,100226.41
2023-04-06T22:45:04.358Z,100235.66
2023-04-06T22:48:06.925Z,100231.63
2023-04-06T22:51:09.332Z,100230.19
2023-04-06T22:54:11.819Z,100231.00
2023-04-06T22:57:14.331Z,100229.41
2023-04-06T23:00:17.216Z,100234.09
2023-04-06T23:03:19.707Z,100233.38
2023-04-06T23:06:22.195Z,100228.75
2023-04-06T23:09:24.773Z,100230.56
2023-04-06T23:12:27.256Z,100227.78
2023-04-06T23:15:29.798Z,100219.31
2023-04-06T23:18:32.210Z,100221.16
2023-04-06T23:21:34.742Z,100218.84
2023-04-06T23:24:37.331Z,100215.72
2023-04-06T23:27:39.761Z,100212.94
2023-04-06T23:30:42.641Z,100219.03
2023-04-06T23:33:45.088Z,100216.50
2023-04-06T23:36:47.660Z,100218.44
2023-04-06T23:39:50.338Z,100212.69
2023-04-06T23:42:52.754Z,100207.31
2023-04-06T23:45:55.175Z,100211.13
2023-04-06T23:48:57.627Z,100211.47
2023-04-06T23:52:00.027Z,100204.75
2023-04-06T23:55:02.445Z,100208.25
2023-04-06T23:58:04.951Z,100208.28
